createdAt,value
2022-08-09T00:01:54.711Z,102017.20
2022-08-09T00:04:34.524Z,102018.00
2022-08-09T00:07:10.388Z,102019.20
2022-08-09T00:09:39.844Z,102018.80
2022-08-09T00:12:22.502Z,102014.60
2022-08-09T00:14:55.849Z,102009.00
2022-08-09T00:18:05.824Z,102015.40
2022-08-09T00:20:13.905Z,102017.60
2022-08-09T00:22:44.837Z,102016.60
2022-08-09T00:25:23.351Z,102011.80
2022-08-09T00:27:54.447Z,102013.20
2022-08-09T00:30:26.148Z,102008.60
2022-08-09T00:32:55.372Z,102004.00
2022-08-09T00:35:24.156Z,102000.40
2022-08-09T00:37:52.087Z,102004.00
2022-08-09T00:40:21.557Z,102000.20
2022-08-09T00:44:15.219Z,102002.20
2022-08-09T00:45:37.563Z,102001.20
2022-08-09T00:48:19.456Z,102001.40
2022-08-09T00:50:47.717Z,102000.40
2022-08-09T00:53:24.198Z,101996.40
2022-08-09T00:56:04.956Z,101999.60
2022-08-09T00:58:37.746Z,101999.40
2022-08-09T01:01:17.656Z,101994.00
2022-08-09T01:04:11.749Z,101995.00
2022-08-09T01:06:54.198Z,101998.80
2022-08-09T01:09:37.172Z,101996.60
2022-08-09T01:12:53.793Z,101999.20
2022-08-09T01:15:29.259Z,101995.80
2022-08-09T01:18:04.833Z,101997.40
2022-08-09T01:20:55.388Z,101994.40
2022-08-09T01:24:02.838Z,101996.40
2022-08-09T01:27:05.385Z,101999.40
2022-08-09T01:29:48.481Z,101995.40
2022-08-09T01:32:34.826Z,102002.00
2022-08-09T01:35:28.407Z,102001.80
2022-08-09T01:38:14.710Z,102000.20
2022-08-09T01:40:53.147Z,101997.20
2022-08-09T01:43:51.218Z,101995.20
2022-08-09T01:46:49.388Z,101994.80
2022-08-09T01:49:24.134Z,101995.00
2022-08-09T01:51:57.580Z,101993.20
2022-08-09T01:54:33.343Z,101992.80
2022-08-09T01:57:14.948Z,101991.40
2022-08-09T01:59:51.551Z,101993.40
2022-08-09T02:02:30.886Z,101994.20
2022-08-09T02:05:15.117Z,101994.20
2022-08-09T02:08:39.588Z,101995.00
2022-08-09T02:10:50.718Z,102001.60
2022-08-09T02:13:26.293Z,101998.60
2022-08-09T02:16:11.482Z,102002.20
2022-08-09T02:18:48.386Z,102003.40
2022-08-09T02:21:22.620Z,102001.00
2022-08-09T02:23:56.694Z,101998.00
2022-08-09T02:26:30.295Z,101999.20
2022-08-09T02:29:06.767Z,102000.00
2022-08-09T02:31:45.089Z,102003.80
2022-08-09T02:34:40.515Z,102004.60
2022-08-09T02:37:21.367Z,102002.20
2022-08-09T02:40:09.468Z,102003.40
2022-08-09T02:42:43.244Z,102003.80
2022-08-09T02:45:34.174Z,101999.00
2022-08-09T02:48:12.278Z,102002.00
2022-08-09T02:51:02.539Z,102005.80
2022-08-09T02:53:37.415Z,102003.60
2022-08-09T02:56:09.190Z,102011.40
2022-08-09T02:58:40.174Z,102014.00
2022-08-09T03:01:11.140Z,102011.20
2022-08-09T03:04:17.774Z,102012.20
2022-08-09T03:06:36.195Z,102017.40
2022-08-09T03:09:06.541Z,102013.60
2022-08-09T03:12:05.591Z,102012.20
2022-08-09T03:14:28.148Z,102014.20
2022-08-09T03:17:01.732Z,102012.00
2022-08-09T03:19:52.548Z,102018.40
2022-08-09T03:22:25.699Z,102023.40
2022-08-09T03:25:03.320Z,102017.20
2022-08-09T03:27:57.203Z,102016.80
2022-08-09T03:30:33.370Z,102016.40
2022-08-09T03:33:17.850Z,102015.80
2022-08-09T03:36:13.287Z,102012.80
2022-08-09T03:38:43.619Z,102012.00
2022-08-09T03:41:16.422Z,102013.40
2022-08-09T03:44:03.758Z,102017.80
2022-08-09T03:46:36.880Z,102014.80
2022-08-09T03:49:07.930Z,102012.00
2022-08-09T03:51:58.888Z,102012.80
2022-08-09T03:54:34.896Z,102020.80
2022-08-09T03:57:20.010Z,102020.20
2022-08-09T03:59:54.360Z,102021.40
2022-08-09T04:02:30.989Z,102017.40
2022-08-09T04:05:06.283Z,102018.20
2022-08-09T04:07:52.476Z,102023.60
2022-08-09T04:10:29.719Z,102020.40
2022-08-09T04:13:03.920Z,102024.60
2022-08-09T04:15:42.558Z,102024.40
2022-08-09T04:18:22.111Z,102026.20
2022-08-09T04:20:51.291Z,102023.40
2022-08-09T04:23:23.446Z,102026.40
2022-08-09T04:25:55.175Z,102026.40
2022-08-09T04:28:33.672Z,102035.40
2022-08-09T04:31:09.002Z,102035.40
2022-08-09T04:33:51.617Z,102033.00
2022-08-09T04:36:28.678Z,102035.60
2022-08-09T04:39:01.821Z,102037.20
2022-08-09T04:41:33.248Z,102040.20
2022-08-09T04:44:11.246Z,102042.40
2022-08-09T04:46:59.421Z,102039.80
2022-08-09T04:49:54.816Z,102041.20
2022-08-09T04:52:28.428Z,102041.40
2022-08-09T04:55:04.674Z,102043.00
2022-08-09T04:57:54.092Z,102042.80
2022-08-09T05:00:24.501Z,102038.40
2022-08-09T05:02:57.212Z,102043.60
2022-08-09T05:05:31.982Z,102042.20
2022-08-09T05:08:27.232Z,102039.60
2022-08-09T05:10:56.676Z,102044.60
2022-08-09T05:13:32.984Z,102048.00
2022-08-09T05:16:28.513Z,102049.20
2022-08-09T05:19:08.122Z,102048.00
2022-08-09T05:21:46.963Z,102050.40
2022-08-09T05:24:34.543Z,102048.80
2022-08-09T05:27:09.872Z,102055.20
2022-08-09T05:29:43.070Z,102053.40
2022-08-09T05:32:24.328Z,102054.00
2022-08-09T05:34:55.180Z,102053.20
2022-08-09T05:37:26.417Z,102057.00
2022-08-09T05:39:54.835Z,102057.80
2022-08-09T05:42:28.779Z,102058.40
2022-08-09T05:44:57.660Z,102060.20
2022-08-09T05:47:40.865Z,102058.80
2022-08-09T05:50:49.546Z,102057.00
2022-08-09T05:53:35.350Z,102056.40
2022-08-09T05:56:25.837Z,102055.20
2022-08-09T06:03:03.787Z,102060.60
2022-08-09T06:05:57.345Z,102056.20
2022-08-09T06:09:23.174Z,102054.80
2022-08-09T06:12:17.375Z,102056.80
2022-08-09T06:15:03.308Z,102057.00
2022-08-09T06:18:03.151Z,102057.60
2022-08-09T06:21:05.562Z,102060.00
2022-08-09T06:23:55.541Z,102057.80
2022-08-09T06:26:45.253Z,102057.80
2022-08-09T06:29:15.818Z,102059.80
2022-08-09T06:32:08.647Z,102057.20
2022-08-09T06:34:31.619Z,102060.00
2022-08-09T06:37:01.388Z,102061.20
2022-08-09T06:39:48.275Z,102062.20
2022-08-09T06:42:24.544Z,102060.60
2022-08-09T06:44:54.371Z,102059.40
2022-08-09T06:47:23.538Z,102064.20
2022-08-09T06:50:13.221Z,102065.80
2022-08-09T06:52:50.844Z,102063.60
2022-08-09T06:55:23.399Z,102067.00
2022-08-09T06:58:01.336Z,102066.00
2022-08-09T07:00:48.754Z,102064.20
2022-08-09T07:03:27.775Z,102069.00
2022-08-09T07:06:04.502Z,102067.40
2022-08-09T07:08:37.409Z,102071.00
2022-08-09T07:11:12.447Z,102074.80
2022-08-09T07:13:45.071Z,102075.00
2022-08-09T07:16:42.093Z,102075.80
2022-08-09T07:19:18.593Z,102076.20
2022-08-09T07:22:00.164Z,102084.60
2022-08-09T07:24:40.157Z,102084.20
2022-08-09T07:27:26.826Z,102082.00
2022-08-09T07:30:02.817Z,102082.80
2022-08-09T07:32:32.181Z,102084.40
2022-08-09T07:35:07.903Z,102091.40
2022-08-09T07:37:45.794Z,102089.80
2022-08-09T07:40:18.719Z,102088.40
2022-08-09T07:43:00.061Z,102088.60
2022-08-09T07:45:38.263Z,102095.20
2022-08-09T07:48:28.898Z,102098.80
2022-08-09T07:51:03.259Z,102098.60
2022-08-09T07:54:06.829Z,102098.00
2022-08-09T07:56:38.848Z,102098.00
2022-08-09T07:59:16.117Z,102099.00
2022-08-09T08:01:56.188Z,102099.00
2022-08-09T08:04:31.515Z,102096.00
2022-08-09T08:07:15.049Z,102097.80
2022-08-09T08:10:04.687Z,102096.40
2022-08-09T08:12:42.693Z,102089.00
2022-08-09T08:15:23.217Z,102091.80
2022-08-09T08:17:57.930Z,102092.20
2022-08-09T08:20:32.316Z,102091.00
2022-08-09T08:23:16.037Z,102091.00
2022-08-09T08:25:49.801Z,102092.20
2022-08-09T08:28:31.803Z,102088.60
2022-08-09T08:31:10.680Z,102090.80
2022-08-09T08:33:52.838Z,102086.40
2022-08-09T08:36:28.909Z,102086.60
2022-08-09T08:39:00.318Z,102087.60
2022-08-09T08:41:51.097Z,102082.60
2022-08-09T08:44:26.934Z,102082.40
2022-08-09T08:47:04.959Z,102080.00
2022-08-09T08:49:48.005Z,102081.20
2022-08-09T08:55:19.047Z,102074.80
2022-08-09T08:57:56.445Z,102079.40
2022-08-09T09:00:29.923Z,102074.80
2022-08-09T09:03:11.485Z,102083.20
2022-08-09T09:05:58.197Z,102081.80
2022-08-09T09:08:40.611Z,102077.80
2022-08-09T09:11:46.675Z,102081.60
2022-08-09T09:14:29.310Z,102075.00
2022-08-09T09:17:07.849Z,102084.20
2022-08-09T09:19:47.097Z,102088.00
2022-08-09T09:22:26.822Z,102086.60
2022-08-09T09:26:04.291Z,102089.00
2022-08-09T09:28:05.530Z,102088.80
2022-08-09T09:30:55.254Z,102089.40
2022-08-09T09:33:44.834Z,102085.80
2022-08-09T09:36:20.500Z,102083.20
2022-08-09T09:38:58.589Z,102084.40
2022-08-09T09:41:49.459Z,102091.00
2022-08-09T09:44:31.812Z,102091.40
2022-08-09T09:47:12.210Z,102097.00
2022-08-09T09:50:14.354Z,102099.20
2022-08-09T09:52:35.871Z,102104.40
2022-08-09T09:55:28.492Z,102105.40
2022-08-09T09:58:15.840Z,102104.00
2022-08-09T10:00:54.399Z,102093.40
2022-08-09T10:03:57.353Z,102102.20
2022-08-09T10:06:42.602Z,102098.40
2022-08-09T10:09:22.724Z,102098.40
2022-08-09T10:12:12.317Z,102096.20
2022-08-09T10:14:48.673Z,102095.20
2022-08-09T10:17:38.893Z,102092.00
2022-08-09T10:20:27.426Z,102091.40
2022-08-09T10:23:23.626Z,102097.00
2022-08-09T10:26:08.054Z,102102.60
2022-08-09T10:28:43.373Z,102106.40
2022-08-09T10:34:32.526Z,102104.40
2022-08-09T10:37:00.410Z,102109.60
2022-08-09T10:39:40.782Z,102116.20
2022-08-09T10:42:19.969Z,102111.60
2022-08-09T10:45:02.458Z,102113.60
2022-08-09T10:48:19.301Z,102114.40
2022-08-09T10:50:59.786Z,102109.80
2022-08-09T10:53:38.166Z,102104.80
2022-08-09T10:56:31.025Z,102110.00
2022-08-09T10:59:03.945Z,102112.60
2022-08-09T11:03:13.710Z,102109.20
2022-08-09T11:04:31.726Z,102101.00
2022-08-09T11:07:01.626Z,102100.00
2022-08-09T11:09:41.191Z,102099.60
2022-08-09T11:12:30.594Z,102095.60
2022-08-09T11:15:23.979Z,102096.40
2022-08-09T11:17:56.874Z,102089.80
2022-08-09T11:20:49.634Z,102094.60
2022-08-09T11:23:24.235Z,102100.00
2022-08-09T11:25:58.472Z,102096.40
2022-08-09T11:28:38.503Z,102098.80
2022-08-09T11:31:49.549Z,102099.20
2022-08-09T11:34:41.909Z,102101.40
2022-08-09T11:37:26.570Z,102097.80
2022-08-09T11:40:17.971Z,102096.80
2022-08-09T11:42:50.533Z,102094.60
2022-08-09T11:45:23.037Z,102095.60
2022-08-09T11:48:11.095Z,102097.80
2022-08-09T11:51:19.389Z,102101.20
2022-08-09T11:54:28.264Z,102105.20
2022-08-09T11:57:56.832Z,102103.60
2022-08-09T12:00:32.687Z,102106.80
2022-08-09T12:03:31.961Z,102102.80
2022-08-09T12:05:55.352Z,102097.80
2022-08-09T12:08:26.078Z,102101.20
2022-08-09T12:11:01.297Z,102096.60
2022-08-09T12:14:09.289Z,102098.40
2022-08-09T12:16:38.616Z,102096.00
2022-08-09T12:19:13.171Z,102097.20
2022-08-09T12:21:51.780Z,102100.40
2022-08-09T12:24:26.276Z,102092.60
2022-08-09T12:29:14.326Z,102097.60
2022-08-09T12:30:02.102Z,102092.00
2022-08-09T12:32:44.772Z,102092.40
2022-08-09T12:35:19.371Z,102091.80
2022-08-09T12:37:52.116Z,102090.60
2022-08-09T12:40:27.551Z,102088.80
2022-08-09T12:42:56.934Z,102093.00
2022-08-09T12:45:34.507Z,102091.80
2022-08-09T12:48:20.269Z,102090.80
2022-08-09T12:50:59.591Z,102094.00
2022-08-09T12:53:40.963Z,102092.40
2022-08-09T12:56:43.301Z,102088.80
2022-08-09T12:59:16.888Z,102095.80
2022-08-09T13:01:50.155Z,102087.40
2022-08-09T13:04:33.337Z,102088.20
2022-08-09T13:07:19.604Z,102079.80
2022-08-09T13:09:55.651Z,102081.80
2022-08-09T13:12:29.515Z,102083.40
2022-08-09T13:15:09.971Z,102088.80
2022-08-09T13:18:03.642Z,102091.00
2022-08-09T13:21:04.293Z,102091.80
2022-08-09T13:24:42.563Z,102085.00
2022-08-09T13:26:36.563Z,102086.40
2022-08-09T13:29:14.193Z,102088.40
2022-08-09T13:32:17.219Z,102083.60
2022-08-09T13:34:47.772Z,102081.60
2022-08-09T13:37:24.787Z,102078.00
2022-08-09T13:41:46.062Z,102087.00
2022-08-09T13:42:57.928Z,102087.80
2022-08-09T13:45:32.143Z,102089.00
2022-08-09T13:48:14.633Z,102086.00
2022-08-09T13:50:43.716Z,102091.80
2022-08-09T13:53:11.622Z,102091.80
2022-08-09T13:55:41.300Z,102085.40
2022-08-09T13:58:12.922Z,102080.60
2022-08-09T14:00:50.357Z,102081.00
2022-08-09T14:04:02.458Z,102081.00
2022-08-09T14:06:14.645Z,102081.20
2022-08-09T14:08:47.668Z,102084.40
2022-08-09T14:11:16.596Z,102089.60
2022-08-09T14:14:24.620Z,102084.80
2022-08-09T14:16:32.822Z,102091.20
2022-08-09T14:19:02.622Z,102089.20
2022-08-09T14:21:31.837Z,102089.40
2022-08-09T14:24:05.601Z,102089.80
2022-08-09T14:26:38.342Z,102091.80
2022-08-09T14:30:18.477Z,102078.00
2022-08-09T14:31:58.308Z,102101.20
2022-08-09T14:34:33.933Z,102097.40
2022-08-09T14:37:08.029Z,102099.00
2022-08-09T14:39:45.303Z,102096.80
2022-08-09T14:42:31.781Z,102102.00
2022-08-09T14:46:39.706Z,102104.60
2022-08-09T14:48:00.207Z,102105.40
2022-08-09T14:50:34.076Z,102110.40
2022-08-09T14:53:11.313Z,102097.80
2022-08-09T14:55:47.908Z,102107.60
2022-08-09T14:58:19.836Z,102101.20
2022-08-09T15:00:50.956Z,102100.60
2022-08-09T15:03:21.030Z,102100.00
2022-08-09T15:05:52.613Z,102098.00
2022-08-09T15:08:26.569Z,102094.60
2022-08-09T15:11:00.380Z,102101.40
2022-08-09T15:13:48.542Z,102104.00
2022-08-09T15:16:19.915Z,102106.00
2022-08-09T15:18:52.351Z,102111.40
2022-08-09T15:21:56.461Z,102116.00
2022-08-09T15:24:19.156Z,102113.80
2022-08-09T15:26:53.219Z,102115.60
2022-08-09T15:29:21.867Z,102117.00
2022-08-09T15:35:02.278Z,102110.20
2022-08-09T15:37:56.892Z,102107.40
2022-08-09T15:40:47.208Z,102103.20
2022-08-09T15:43:36.922Z,102101.00
2022-08-09T15:46:28.128Z,102100.20
2022-08-09T15:49:21.815Z,102102.80
2022-08-09T15:52:04.697Z,102098.60
2022-08-09T15:54:49.694Z,102094.60
2022-08-09T15:57:34.540Z,102103.60
2022-08-09T16:00:24.227Z,102105.00
2022-08-09T16:02:55.995Z,102107.20
2022-08-09T16:06:03.246Z,102101.40
2022-08-09T16:08:49.836Z,102095.80
2022-08-09T16:11:50.375Z,102095.20
2022-08-09T16:14:32.811Z,102097.60
2022-08-09T16:17:08.967Z,102098.80
2022-08-09T16:20:05.073Z,102096.40
2022-08-09T16:25:50.424Z,102097.40
2022-08-09T16:28:25.491Z,102094.80
2022-08-09T16:30:59.770Z,102088.00
2022-08-09T16:36:35.696Z,102080.80
2022-08-09T16:39:07.176Z,102083.80
2022-08-09T16:42:02.171Z,102080.40
2022-08-09T16:44:31.616Z,102082.20
2022-08-09T16:47:03.993Z,102086.40
2022-08-09T16:50:29.551Z,102076.80
2022-08-09T16:52:44.100Z,102076.80
2022-08-09T16:55:15.702Z,102078.60
2022-08-09T16:58:09.886Z,102078.80
2022-08-09T17:00:34.518Z,102076.60
2022-08-09T17:03:02.531Z,102074.40
2022-08-09T17:06:06.615Z,102077.80
2022-08-09T17:08:42.703Z,102075.80
2022-08-09T17:11:06.888Z,102082.00
2022-08-09T17:13:37.607Z,102079.40
2022-08-09T17:16:07.370Z,102084.40
2022-08-09T17:18:35.796Z,102085.60
2022-08-09T17:22:24.769Z,102079.60
2022-08-09T17:24:47.709Z,102083.00
2022-08-09T17:28:33.589Z,102088.80
2022-08-09T17:31:16.004Z,102089.60
2022-08-09T17:35:07.967Z,102091.40
2022-08-09T17:38:02.552Z,102098.80
2022-08-09T17:40:26.047Z,102102.40
2022-08-09T17:42:59.293Z,102103.80
2022-08-09T17:46:04.479Z,102108.80
2022-08-09T17:52:02.721Z,102117.20
2022-08-09T17:58:02.409Z,102121.20
2022-08-09T18:01:09.838Z,102121.80
2022-08-09T18:03:46.981Z,102129.80
2022-08-09T18:06:31.442Z,102135.00
2022-08-09T18:09:04.176Z,102138.00
2022-08-09T18:11:46.818Z,102138.00
2022-08-09T18:14:29.002Z,102137.60
2022-08-09T18:16:57.059Z,102139.20
2022-08-09T18:20:55.834Z,102135.00
2022-08-09T18:22:17.020Z,102129.80
2022-08-09T18:24:46.940Z,102132.20
2022-08-09T18:27:33.662Z,102137.20
2022-08-09T18:30:34.963Z,102135.80
2022-08-09T18:33:31.306Z,102133.00
2022-08-09T18:36:38.866Z,102136.40
2022-08-09T18:39:33.870Z,102137.20
2022-08-09T18:42:16.153Z,102141.40
2022-08-09T18:44:45.899Z,102144.40
2022-08-09T18:47:27.542Z,102145.80
2022-08-09T18:50:17.241Z,102147.40
2022-08-09T18:52:47.045Z,102146.00
2022-08-09T18:55:56.265Z,102144.20
2022-08-09T18:59:23.353Z,102145.40
2022-08-09T19:06:22.057Z,102150.00
2022-08-09T19:10:12.727Z,102152.40
2022-08-09T19:12:25.131Z,102151.60
2022-08-09T19:15:20.086Z,102148.60
2022-08-09T19:18:48.087Z,102147.80
2022-08-09T19:22:04.932Z,102145.60
2022-08-09T19:25:09.674Z,102152.60
2022-08-09T19:27:29.166Z,102149.80
2022-08-09T19:30:22.199Z,102154.20
2022-08-09T19:32:46.256Z,102149.80
2022-08-09T19:35:26.050Z,102154.20
2022-08-09T19:37:57.930Z,102156.80
2022-08-09T19:40:34.010Z,102157.60
2022-08-09T19:44:30.737Z,102150.80
2022-08-09T19:47:28.901Z,102154.60
2022-08-09T19:50:49.285Z,102158.00
2022-08-09T19:53:55.344Z,102144.20
2022-08-09T19:56:30.666Z,102145.00
2022-08-09T19:59:18.566Z,102147.60
2022-08-09T20:02:05.147Z,102150.20
2022-08-09T20:04:40.824Z,102152.40
2022-08-09T20:07:22.583Z,102147.60
2022-08-09T20:09:51.175Z,102149.40
2022-08-09T20:12:30.301Z,102148.40
2022-08-09T20:16:32.858Z,102149.60
2022-08-09T20:18:00.228Z,102145.80
2022-08-09T20:20:28.605Z,102147.80
2022-08-09T20:22:57.676Z,102150.40
2022-08-09T20:25:26.838Z,102148.20
2022-08-09T20:27:55.880Z,102148.60
2022-08-09T20:30:25.241Z,102150.80
2022-08-09T20:32:53.885Z,102149.60
2022-08-09T20:35:22.397Z,102149.00
2022-08-09T20:38:22.106Z,102152.60
2022-08-09T20:40:41.111Z,102154.20
2022-08-09T20:43:17.977Z,102156.00
2022-08-09T20:45:58.406Z,102156.40
2022-08-09T20:48:31.501Z,102156.60
2022-08-09T20:51:01.351Z,102154.80
2022-08-09T20:53:36.704Z,102159.80
2022-08-09T20:56:20.272Z,102154.80
2022-08-09T20:58:58.166Z,102153.00
2022-08-09T21:01:35.095Z,102152.80
2022-08-09T21:05:51.660Z,102153.80
2022-08-09T21:07:14.078Z,102154.00
2022-08-09T21:09:55.384Z,102154.20
2022-08-09T21:15:15.205Z,102155.20
2022-08-09T21:18:22.256Z,102151.40
2022-08-09T21:20:35.554Z,102156.60
2022-08-09T21:23:04.514Z,102152.80
2022-08-09T21:25:58.787Z,102150.80
2022-08-09T21:28:36.125Z,102147.00
2022-08-09T21:31:16.296Z,102147.40
2022-08-09T21:33:56.679Z,102147.20
2022-08-09T21:36:30.850Z,102149.00
2022-08-09T21:39:04.276Z,102156.80
2022-08-09T21:42:06.100Z,102159.80
2022-08-09T21:44:32.879Z,102160.20
2022-08-09T21:47:07.749Z,102156.80
2022-08-09T21:49:42.572Z,102156.20
2022-08-09T21:52:17.786Z,102151.00
2022-08-09T21:55:03.282Z,102149.20
2022-08-09T21:57:59.809Z,102155.20
2022-08-09T22:00:33.816Z,102155.20
2022-08-09T22:03:07.879Z,102160.80
2022-08-09T22:05:51.212Z,102157.20
2022-08-09T22:08:24.503Z,102157.00
2022-08-09T22:11:04.837Z,102162.40
2022-08-09T22:13:44.703Z,102159.20
2022-08-09T22:16:12.974Z,102159.00
2022-08-09T22:18:53.330Z,102158.00
2022-08-09T22:21:45.394Z,102159.60
2022-08-09T22:24:20.906Z,102152.60
2022-08-09T22:26:54.145Z,102149.20
2022-08-09T22:29:28.785Z,102155.20
2022-08-09T22:32:00.955Z,102153.20
2022-08-09T22:34:30.151Z,102150.00
2022-08-09T22:37:03.769Z,102153.60
2022-08-09T22:39:55.322Z,102153.00
2022-08-09T22:42:26.462Z,102158.40
2022-08-09T22:45:00.376Z,102159.20
2022-08-09T22:48:16.726Z,102161.00
2022-08-09T22:50:35.509Z,102163.00
2022-08-09T22:53:04.392Z,102158.20
2022-08-09T22:56:06.336Z,102159.80
2022-08-09T22:58:32.599Z,102158.60
2022-08-09T23:01:06.250Z,102155.20
2022-08-09T23:04:02.873Z,102157.40
2022-08-09T23:06:32.637Z,102158.60
2022-08-09T23:09:08.021Z,102152.00
2022-08-09T23:11:36.217Z,102152.00
2022-08-09T23:14:09.667Z,102149.20
2022-08-09T23:16:38.567Z,102150.60
2022-08-09T23:19:06.664Z,102146.20
2022-08-09T23:21:36.446Z,102151.60
2022-08-09T23:24:08.159Z,102148.20
2022-08-09T23:26:38.048Z,102152.60
2022-08-09T23:29:13.951Z,102149.40
2022-08-09T23:31:42.357Z,102152.20
2022-08-09T23:34:11.304Z,102151.20
2022-08-09T23:36:39.186Z,102151.60
2022-08-09T23:39:08.412Z,102149.40
2022-08-09T23:41:36.336Z,102150.20
2022-08-09T23:44:04.718Z,102149.40
2022-08-09T23:46:33.899Z,102150.60
2022-08-09T23:49:02.257Z,102153.60
2022-08-09T23:51:31.446Z,102151.40
2022-08-09T23:54:02.574Z,102151.80
2022-08-09T23:56:52.000Z,102154.80
2022-08-09T23:59:22.617Z,102157.20
